createdAt,value
2019-03-22T05:02:13.497Z,38.67
2019-03-22T05:04:45.073Z,39.43
2019-03-22T05:07:15.487Z,41.77
2019-03-22T05:09:46.128Z,41.40
2019-03-22T05:12:19.086Z,39.93
2019-03-22T05:14:49.312Z,40.03
2019-03-22T05:17:19.324Z,40.83
2019-03-22T05:19:53.101Z,38.77
2019-03-22T05:22:23.460Z,43.20
2019-03-22T05:24:54.415Z,41.90
2019-03-22T05:27:25.258Z,42.37
2019-03-22T05:29:56.824Z,43.77
2019-03-22T05:32:26.490Z,40.57
2019-03-22T05:34:56.102Z,41.37
2019-03-22T05:37:25.852Z,39.97
2019-03-22T05:39:55.216Z,41.17
2019-03-22T05:42:25.129Z,38.20
2019-03-22T05:44:54.829Z,35.83
2019-03-22T05:47:24.312Z,37.07
2019-03-22T05:49:54.359Z,36.33
2019-03-22T05:52:24.138Z,39.13
2019-03-22T05:54:54.105Z,38.13
2019-03-22T05:57:24.157Z,37.17
2019-03-22T05:59:54.210Z,38.33
2019-03-22T06:02:24.164Z,40.80
2019-03-22T06:04:53.969Z,37.33
2019-03-22T06:07:23.772Z,39.23
2019-03-22T06:09:53.760Z,43.03
2019-03-22T06:12:23.185Z,43.03
2019-03-22T06:14:53.109Z,44.60
2019-03-22T06:17:22.792Z,41.27
2019-03-22T06:19:52.596Z,43.07
2019-03-22T06:22:22.631Z,41.83
2019-03-22T06:24:52.557Z,34.97
2019-03-22T06:27:22.233Z,39.17
2019-03-22T06:29:54.400Z,39.87
2019-03-22T06:32:23.576Z,39.70
2019-03-22T06:34:53.013Z,41.27
2019-03-22T06:37:22.760Z,35.50
2019-03-22T06:39:52.421Z,33.87
2019-03-22T06:42:21.841Z,40.37
2019-03-22T06:44:51.184Z,38.90
2019-03-22T06:47:20.933Z,36.30
2019-03-22T06:49:50.348Z,37.87
2019-03-22T06:52:20.061Z,40.23
2019-03-22T06:54:50.004Z,36.30
2019-03-22T06:57:19.622Z,35.73
2019-03-22T06:59:48.977Z,37.20
2019-03-22T07:02:18.354Z,37.30
2019-03-22T07:04:47.706Z,36.53
2019-03-22T07:07:17.736Z,42.27
2019-03-22T07:09:47.430Z,40.43
2019-03-22T07:12:16.772Z,38.23
2019-03-22T07:14:46.401Z,35.63
2019-03-22T07:17:15.817Z,36.07
2019-03-22T07:19:45.209Z,37.40
2019-03-22T07:22:14.620Z,36.13
2019-03-22T07:24:44.213Z,35.70
2019-03-22T07:27:15.156Z,38.30
2019-03-22T07:29:45.273Z,40.40
2019-03-22T07:32:14.989Z,36.27
2019-03-22T07:34:44.690Z,37.47
2019-03-22T07:37:14.120Z,39.23
2019-03-22T07:39:43.915Z,35.77
2019-03-22T07:42:13.336Z,35.50
2019-03-22T07:44:44.015Z,43.77
2019-03-22T07:47:13.763Z,39.60
2019-03-22T07:49:43.191Z,36.57
2019-03-22T07:52:12.684Z,34.50
2019-03-22T07:54:42.392Z,38.43
2019-03-22T07:57:11.741Z,32.93
2019-03-22T07:59:41.481Z,36.80
2019-03-22T08:02:10.904Z,38.13
2019-03-22T08:04:40.461Z,35.40
2019-03-22T08:07:09.885Z,37.70
2019-03-22T08:09:39.543Z,39.33
2019-03-22T08:12:09.511Z,40.57
2019-03-22T08:14:39.175Z,40.13
2019-03-22T08:17:08.611Z,39.33
2019-03-22T08:19:38.007Z,37.00
2019-03-22T08:22:07.767Z,41.50
2019-03-22T08:24:37.504Z,38.70
2019-03-22T08:27:07.467Z,39.67
2019-03-22T08:29:37.197Z,38.60
2019-03-22T08:32:06.860Z,38.70
2019-03-22T08:34:36.423Z,38.03
2019-03-22T08:37:05.877Z,34.27
2019-03-22T08:39:35.556Z,39.10
2019-03-22T08:42:05.072Z,35.80
2019-03-22T08:44:34.599Z,38.33
2019-03-22T08:47:04.072Z,39.67
2019-03-22T08:49:33.570Z,38.13
2019-03-22T08:52:03.629Z,35.17
2019-03-22T08:54:33.142Z,37.93
2019-03-22T08:57:03.051Z,39.87
2019-03-22T08:59:32.474Z,39.70
2019-03-22T09:02:01.828Z,37.47
2019-03-22T09:04:31.569Z,36.23
2019-03-22T09:07:01.511Z,37.20
2019-03-22T09:09:40.942Z,40.10
2019-03-22T09:12:02.399Z,38.57
2019-03-22T09:14:32.181Z,41.63
2019-03-22T09:17:01.635Z,37.00
2019-03-22T09:19:31.996Z,45.80
2019-03-22T09:22:01.936Z,40.23
2019-03-22T09:24:39.049Z,44.13
2019-03-22T09:27:02.849Z,40.90
2019-03-22T09:29:32.876Z,40.20
2019-03-22T09:32:02.381Z,41.97
2019-03-22T09:34:34.005Z,41.83
2019-03-22T09:37:03.451Z,36.73
2019-03-22T09:39:32.866Z,41.93
2019-03-22T09:42:02.395Z,44.83
2019-03-22T09:44:42.778Z,42.90
2019-03-22T09:47:03.533Z,39.70
2019-03-22T09:49:33.237Z,43.50
2019-03-22T09:52:03.150Z,47.13
2019-03-22T09:54:32.542Z,45.03
2019-03-22T09:57:02.243Z,44.93
2019-03-22T09:59:31.648Z,46.13
2019-03-22T10:02:02.036Z,48.07
2019-03-22T10:04:31.840Z,47.00
2019-03-22T10:07:01.487Z,45.47
2019-03-22T10:09:31.458Z,46.60
2019-03-22T10:12:00.863Z,47.73
2019-03-22T10:14:31.446Z,49.43
2019-03-22T10:17:01.076Z,45.93
2019-03-22T10:19:31.120Z,50.60
2019-03-22T10:22:00.802Z,52.23
2019-03-22T10:24:30.172Z,45.20
2019-03-22T10:26:59.843Z,49.17
2019-03-22T10:29:29.510Z,51.60
2019-03-22T10:31:59.281Z,51.57
2019-03-22T10:34:28.936Z,54.07
2019-03-22T10:36:58.945Z,53.57
2019-03-22T10:39:28.550Z,49.63
2019-03-22T10:41:58.053Z,54.57
2019-03-22T10:44:27.633Z,58.17
2019-03-22T10:46:57.092Z,54.90
2019-03-22T10:49:26.849Z,53.27
2019-03-22T10:51:58.150Z,55.70
2019-03-22T10:54:28.161Z,54.43
2019-03-22T10:56:58.089Z,51.30
2019-03-22T10:59:27.805Z,54.03
2019-03-22T11:02:03.256Z,49.93
2019-03-22T11:04:29.006Z,52.23
2019-03-22T11:06:58.660Z,56.73
2019-03-22T11:09:28.201Z,51.97
2019-03-22T11:11:58.000Z,52.60
2019-03-22T11:14:27.953Z,57.63
2019-03-22T11:16:57.669Z,54.47
2019-03-22T11:19:27.359Z,50.43
2019-03-22T11:21:57.080Z,48.00
2019-03-22T11:24:26.460Z,47.00
2019-03-22T11:26:57.319Z,46.30
2019-03-22T11:29:26.672Z,45.03
2019-03-22T11:31:56.004Z,47.93
2019-03-22T11:34:25.640Z,38.23
2019-03-22T11:36:55.651Z,44.00
2019-03-22T11:39:25.052Z,42.83
2019-03-22T11:41:55.023Z,47.83
2019-03-22T11:44:24.770Z,43.70
2019-03-22T11:46:54.198Z,42.20
2019-03-22T11:49:23.928Z,43.37
2019-03-22T11:51:53.292Z,34.23
2019-03-22T11:54:22.888Z,33.23
2019-03-22T11:56:52.596Z,33.63
2019-03-22T11:59:22.081Z,31.73
2019-03-22T12:01:51.929Z,33.07
2019-03-22T12:04:21.648Z,28.40
2019-03-22T12:06:51.640Z,31.43
2019-03-22T12:09:23.019Z,31.77
2019-03-22T12:11:52.547Z,31.90
2019-03-22T12:14:22.145Z,33.40
2019-03-22T12:16:51.751Z,29.13
2019-03-22T12:19:21.550Z,35.13
2019-03-22T12:21:50.999Z,30.33
2019-03-22T12:24:20.357Z,32.30
2019-03-22T12:26:50.232Z,40.00
2019-03-22T12:29:19.581Z,32.37
2019-03-22T12:31:49.241Z,33.97
2019-03-22T12:34:19.333Z,36.87
2019-03-22T12:36:48.924Z,31.27
2019-03-22T12:39:18.266Z,27.82
2019-03-22T12:41:47.977Z,31.83
2019-03-22T12:44:17.719Z,34.63
2019-03-22T12:46:49.112Z,37.53
2019-03-22T12:49:18.107Z,33.93
2019-03-22T12:51:47.809Z,33.03
2019-03-22T12:54:17.717Z,32.33
2019-03-22T12:56:47.445Z,32.03
2019-03-22T12:59:17.040Z,33.05
2019-03-22T13:01:46.421Z,30.50
2019-03-22T13:04:15.744Z,29.97
2019-03-22T13:06:45.077Z,31.17
2019-03-22T13:09:14.494Z,29.53
2019-03-22T13:11:44.116Z,25.77
2019-03-22T13:14:13.524Z,29.07
2019-03-22T13:16:43.168Z,28.32
2019-03-22T13:19:12.492Z,26.07
2019-03-22T13:21:42.223Z,24.90
2019-03-22T13:24:12.033Z,26.40
2019-03-22T13:26:41.712Z,22.55
2019-03-22T13:29:11.624Z,20.43
2019-03-22T13:31:44.716Z,22.00
2019-03-22T13:34:14.168Z,22.47
2019-03-22T13:36:43.511Z,23.05
2019-03-22T13:39:12.928Z,21.15
2019-03-22T13:41:42.265Z,18.55
2019-03-22T13:44:11.928Z,22.10
2019-03-22T13:46:41.537Z,17.50
2019-03-22T13:49:10.856Z,20.80
2019-03-22T13:51:40.201Z,18.67
2019-03-22T13:54:09.605Z,21.23
2019-03-22T13:56:39.556Z,19.57
2019-03-22T13:59:08.909Z,14.80
2019-03-22T14:01:38.263Z,20.95
2019-03-22T14:04:07.666Z,17.37
2019-03-22T14:06:37.332Z,19.27
2019-03-22T14:09:08.633Z,27.65
2019-03-22T14:11:37.988Z,22.82
2019-03-22T14:14:07.725Z,26.15
2019-03-22T14:16:37.640Z,22.48
2019-03-22T14:19:07.153Z,22.50
2019-03-22T14:21:36.961Z,27.80
2019-03-22T14:24:06.387Z,25.40
2019-03-22T14:26:36.060Z,26.45
2019-03-22T14:29:05.946Z,24.95
2019-03-22T14:31:35.550Z,28.40
2019-03-22T14:34:04.980Z,31.33
2019-03-22T14:36:34.724Z,30.17
2019-03-22T14:39:06.576Z,30.15
2019-03-22T14:41:35.951Z,25.32
2019-03-22T14:44:05.901Z,26.23
2019-03-22T14:46:35.932Z,25.00
2019-03-22T14:49:05.702Z,31.17
2019-03-22T14:51:35.879Z,26.62
2019-03-22T14:54:05.829Z,32.70
2019-03-22T14:56:35.749Z,30.88
2019-03-22T14:59:05.184Z,28.17
2019-03-22T15:01:34.565Z,29.65
2019-03-22T15:04:04.120Z,29.37
2019-03-22T15:06:34.277Z,27.27
2019-03-22T15:09:05.537Z,31.45
2019-03-22T15:11:35.240Z,28.67
2019-03-22T15:14:15.387Z,30.52
2019-03-22T15:17:02.907Z,29.98
2019-03-22T15:19:47.255Z,29.82
2019-03-22T15:22:34.677Z,29.10
2019-03-22T15:25:29.792Z,24.67
2019-03-22T15:28:17.528Z,27.62
2019-03-22T15:31:04.896Z,26.50
2019-03-22T15:33:46.437Z,28.67
2019-03-22T15:36:39.658Z,29.48
2019-03-22T15:39:27.340Z,24.57
2019-03-22T15:41:57.236Z,27.05
2019-03-22T15:44:26.668Z,26.35
2019-03-22T15:46:56.083Z,31.87
2019-03-22T15:49:26.839Z,22.90
2019-03-22T15:51:56.689Z,20.10
2019-03-22T15:54:26.411Z,36.45
2019-03-22T15:56:56.331Z,25.60
2019-03-22T15:59:25.647Z,18.42
2019-03-22T16:01:55.508Z,17.35
2019-03-22T16:04:24.879Z,16.93
2019-03-22T16:06:54.321Z,17.77
2019-03-22T16:09:25.892Z,15.63
2019-03-22T16:11:55.872Z,15.32
2019-03-22T16:14:25.308Z,17.15
2019-03-22T16:16:55.694Z,18.30
2019-03-22T16:19:25.187Z,16.97
2019-03-22T16:21:54.697Z,15.90
2019-03-22T16:24:24.067Z,16.85
2019-03-22T16:26:53.479Z,18.15
2019-03-22T16:29:23.736Z,18.65
2019-03-22T16:31:53.309Z,19.25
2019-03-22T16:34:23.210Z,19.82
2019-03-22T16:36:53.339Z,21.70
2019-03-22T16:39:23.212Z,23.30
2019-03-22T16:41:52.648Z,27.53
2019-03-22T16:44:22.213Z,23.10
2019-03-22T16:46:51.764Z,28.17
2019-03-22T16:49:21.632Z,30.40
2019-03-22T16:51:54.568Z,32.10
2019-03-22T16:54:24.557Z,38.60
2019-03-22T16:56:54.192Z,33.43
2019-03-22T16:59:23.636Z,35.40
2019-03-22T17:01:53.140Z,34.73
2019-03-22T17:04:22.875Z,37.37
2019-03-22T17:06:52.316Z,35.10
2019-03-22T17:09:21.995Z,35.57
2019-03-22T17:11:51.988Z,35.47
2019-03-22T17:14:22.056Z,38.20
2019-03-22T17:16:51.752Z,32.50
2019-03-22T17:19:21.787Z,32.47
2019-03-22T17:21:51.276Z,36.33
2019-03-22T17:24:20.953Z,37.40
2019-03-22T17:26:50.664Z,37.33
2019-03-22T17:29:21.397Z,34.60
2019-03-22T17:31:51.404Z,33.83
2019-03-22T17:34:21.296Z,34.27
2019-03-22T17:36:50.957Z,34.57
2019-03-22T17:39:20.761Z,34.00
2019-03-22T17:41:50.730Z,35.47
2019-03-22T17:44:21.236Z,35.50
2019-03-22T17:46:50.827Z,34.10
2019-03-22T17:49:20.277Z,32.43
2019-03-22T17:51:49.824Z,36.07
2019-03-22T17:54:19.489Z,35.40
2019-03-22T17:56:51.789Z,34.73
2019-03-22T17:59:21.785Z,35.93
2019-03-22T18:01:51.779Z,35.07
2019-03-22T18:04:24.333Z,35.47
2019-03-22T18:06:53.312Z,34.00
2019-03-22T18:09:23.409Z,32.10
2019-03-22T18:11:56.341Z,32.40
2019-03-22T18:14:26.995Z,42.07
2019-03-22T18:16:56.777Z,95.80
2019-03-22T18:19:26.154Z,43.37
2019-03-22T18:21:56.683Z,38.90
2019-03-22T18:24:27.159Z,33.33
2019-03-22T18:26:57.093Z,49.07
2019-03-22T18:29:27.314Z,37.53
2019-03-22T18:31:57.267Z,34.50
2019-03-22T18:34:34.277Z,35.93
2019-03-22T18:36:58.756Z,29.43
2019-03-22T18:39:28.133Z,29.13
2019-03-22T18:41:57.504Z,32.27
2019-03-22T18:44:27.896Z,30.33
2019-03-22T18:46:57.244Z,33.43
2019-03-22T18:49:26.935Z,33.73
2019-03-22T18:51:56.356Z,32.40
2019-03-22T18:54:27.584Z,31.93
2019-03-22T18:56:57.267Z,31.77
2019-03-22T18:59:26.717Z,37.77
2019-03-22T19:01:56.409Z,33.97
2019-03-22T19:04:26.140Z,36.33
2019-03-22T19:06:56.339Z,36.70
2019-03-22T19:09:26.717Z,36.20
2019-03-22T19:11:56.883Z,37.23
2019-03-22T19:14:26.313Z,36.23
2019-03-22T19:16:56.023Z,35.60
2019-03-22T19:19:25.783Z,40.10
2019-03-22T19:21:55.596Z,39.13
2019-03-22T19:24:25.704Z,37.67
2019-03-22T19:26:55.152Z,37.73
2019-03-22T19:29:24.504Z,38.00
2019-03-22T19:31:54.241Z,36.70
2019-03-22T19:34:23.653Z,37.47
2019-03-22T19:36:53.660Z,40.60
2019-03-22T19:39:23.780Z,40.00
2019-03-22T19:41:53.684Z,41.07
2019-03-22T19:44:24.972Z,37.37
2019-03-22T19:46:57.155Z,36.40
2019-03-22T19:49:30.509Z,40.97
2019-03-22T19:52:01.119Z,38.00
2019-03-22T19:54:30.953Z,40.17
2019-03-22T19:57:00.629Z,42.30
2019-03-22T19:59:30.605Z,42.03
2019-03-22T20:02:03.163Z,38.57
2019-03-22T20:04:37.908Z,42.73
2019-03-22T20:07:08.021Z,43.73
2019-03-22T20:09:40.054Z,41.60
2019-03-22T20:12:09.473Z,51.13
2019-03-22T20:14:39.138Z,66.93
2019-03-22T20:17:08.824Z,57.30
2019-03-22T20:19:38.501Z,61.73
2019-03-22T20:22:08.116Z,59.00
2019-03-22T20:24:37.795Z,59.30
2019-03-22T20:27:07.936Z,54.60
2019-03-22T20:29:39.994Z,54.43
2019-03-22T20:32:09.142Z,60.07
2019-03-22T20:34:38.693Z,66.50
2019-03-22T20:37:10.294Z,68.20
2019-03-22T20:39:42.207Z,65.17
2019-03-22T20:42:12.748Z,63.47
2019-03-22T20:44:43.185Z,71.30
2019-03-22T20:47:12.850Z,68.00
2019-03-22T20:49:42.616Z,75.17
2019-03-22T20:52:12.423Z,68.40
2019-03-22T20:54:41.845Z,75.70
2019-03-22T20:57:11.999Z,64.17
2019-03-22T20:59:41.706Z,68.47
2019-03-22T21:02:11.399Z,63.40
2019-03-22T21:04:40.865Z,64.20
2019-03-22T21:07:10.286Z,58.37
2019-03-22T21:09:40.246Z,59.77
2019-03-22T21:12:09.627Z,58.93
2019-03-22T21:14:39.346Z,61.73
2019-03-22T21:17:08.715Z,58.97
2019-03-22T21:19:38.326Z,59.27
2019-03-22T21:22:08.053Z,52.87
2019-03-22T21:24:38.048Z,55.77
2019-03-22T21:27:15.125Z,60.27
2019-03-22T21:29:44.012Z,56.63
2019-03-22T21:32:10.156Z,59.17
2019-03-22T21:34:39.966Z,55.17
2019-03-22T21:37:09.710Z,54.63
2019-03-22T21:39:39.404Z,52.33
2019-03-22T21:42:08.843Z,53.20
2019-03-22T21:44:38.344Z,57.93
2019-03-22T21:47:07.784Z,54.40
2019-03-22T21:49:37.390Z,56.83
2019-03-22T21:52:06.856Z,59.53
2019-03-22T21:54:36.771Z,53.60
2019-03-22T21:57:06.181Z,49.17
2019-03-22T21:59:35.868Z,50.07
